Time;durP1;ratioP1;P1;durP2;ratioP2;P2;SDS_P1;SDS_P2;PMS_P1;PMS_P2;Temp;Humidity;BMP_temperature;BMP_pressure;BME280_temperature;BME280_humidity;BME280_pressure;Samples;Min_cycle;Max_cycle;Signal;HPM_P1;HPM_P2
2022/02/19 00:01:29;;;;;;;0.63;0.63;;;;;;;7.34;54.62;98264.53;5068846;28;20035;-65
2022/02/19 00:03:56;;;;;;;1.30;1.20;;;;;;;7.39;54.50;98267.91;5058418;28;20024;-66
2022/02/19 00:06:21;;;;;;;0.90;0.90;;;;;;;7.34;54.31;98274.84;5029035;28;20100;-66
2022/02/19 00:08:46;;;;;;;0.50;0.50;;;;;;;7.32;54.07;98271.47;5029078;28;20129;-66
2022/02/19 00:11:12;;;;;;;1.13;1.02;;;;;;;7.27;55.25;98274.97;5029255;28;20385;-66
2022/02/19 00:13:37;;;;;;;6.18;1.38;;;;;;;7.33;53.85;98274.88;5029054;28;20466;-66
2022/02/19 00:16:05;;;;;;;0.40;0.40;;;;;;;7.39;52.59;98282.53;5028697;28;20032;-66
2022/02/19 00:18:31;;;;;;;0.50;0.50;;;;;;;7.32;53.29;98286.91;5029214;28;20145;-69
2022/02/19 00:20:57;;;;;;;1.25;1.20;;;;;;;7.29;53.39;98291.25;5029085;28;20435;-70
2022/02/19 00:23:22;;;;;;;0.40;0.40;;;;;;;7.25;53.63;98287.84;5028979;28;20032;-70
2022/02/19 00:25:48;;;;;;;8.40;1.00;;;;;;;7.29;52.54;98281.78;5028869;28;20105;-66
2022/02/19 00:28:13;;;;;;;0.50;0.50;;;;;;;7.26;52.83;98296.47;5028856;28;20032;-69
2022/02/19 00:30:38;;;;;;;0.40;0.40;;;;;;;7.28;52.30;98300.72;5028631;28;20057;-69
2022/02/19 00:33:03;;;;;;;0.60;0.60;;;;;;;7.26;52.40;98296.47;5048800;28;20455;-69
2022/02/19 00:35:29;;;;;;;3.25;1.23;;;;;;;7.34;51.17;98313.50;5061415;28;20031;-69
2022/02/19 00:37:54;;;;;;;1.10;1.05;;;;;;;7.29;51.73;98307.56;5068362;28;20028;-70
2022/02/19 00:40:20;;;;;;;0.50;0.50;;;;;;;7.22;51.79;98327.41;5068451;28;20027;-69
2022/02/19 00:42:45;;;;;;;1.25;0.77;;;;;;;7.36;52.30;98319.50;5068563;28;20029;-69
2022/02/19 00:45:10;;;;;;;6.85;1.33;;;;;;;7.37;51.41;98334.09;5068358;28;20099;-69
2022/02/19 00:47:35;;;;;;;0.88;0.88;;;;;;;7.39;51.54;98339.22;5068431;28;20104;-69
2022/02/19 00:50:01;;;;;;;0.60;0.60;;;;;;;7.36;51.73;98347.88;5068529;28;20425;-70
2022/02/19 00:52:26;;;;;;;0.40;0.40;;;;;;;7.33;51.68;98329.84;5068317;28;20588;-69
2022/02/19 00:54:52;;;;;;;0.63;0.63;;;;;;;7.32;51.89;98348.75;5068320;28;20043;-69
2022/02/19 00:57:17;;;;;;;0.40;0.40;;;;;;;7.35;51.35;98359.06;5068159;28;20041;-70
2022/02/19 00:59:42;;;;;;;0.40;0.40;;;;;;;7.33;52.43;98350.47;5068121;28;20024;-70
2022/02/19 08:01:07;;;;;;;1.02;1.02;;;;;;;5.13;56.40;99004.41;5731468;22;20127;-70
2022/02/19 08:03:33;;;;;;;0.60;0.60;;;;;;;5.16;56.33;99009.53;5012275;28;20061;-71
2022/02/19 08:05:59;;;;;;;0.63;0.55;;;;;;;5.32;56.18;99003.69;5012504;28;20113;-70
2022/02/19 08:08:25;;;;;;;2.85;0.90;;;;;;;5.41;55.59;99006.31;5011543;28;20386;-70
2022/02/19 08:10:51;;;;;;;0.50;0.50;;;;;;;5.56;55.51;99004.66;5012096;28;20041;-71
2022/02/19 08:13:18;;;;;;;0.63;0.63;;;;;;;5.41;55.45;99015.69;5012289;28;20364;-70
2022/02/19 08:15:45;;;;;;;0.60;0.60;;;;;;;5.69;54.87;99011.59;5020442;22;20050;-76
2022/02/19 08:18:11;;;;;;;0.57;0.57;;;;;;;5.92;53.99;99017.72;4992684;28;20486;-77
2022/02/19 08:20:39;;;;;;;0.60;0.60;;;;;;;6.29;53.23;99028.19;4992590;28;20054;-76
2022/02/19 08:23:06;;;;;;;0.60;0.60;;;;;;;6.77;51.61;99018.84;4992663;28;20018;-76
2022/02/19 08:25:32;;;;;;;2.05;1.67;;;;;;;7.72;49.46;99016.16;4992463;28;20018;-76
2022/02/19 08:27:58;;;;;;;1.08;0.98;;;;;;;7.74;48.86;99024.78;4992363;28;20026;-76
2022/02/19 08:30:24;;;;;;;0.50;0.50;;;;;;;7.33;49.81;99024.84;4992500;28;20024;-76
2022/02/19 08:32:49;;;;;;;4.00;1.30;;;;;;;7.48;49.69;99030.81;4992432;28;20022;-76
2022/02/19 08:35:15;;;;;;;0.70;0.70;;;;;;;8.35;48.06;99016.78;4990986;28;20463;-76
2022/02/19 08:37:41;;;;;;;0.70;0.68;;;;;;;7.30;49.78;99029.97;4992227;28;20026;-76
2022/02/19 08:40:09;;;;;;;0.50;0.50;;;;;;;8.55;47.89;99027.03;4992164;28;20027;-76
2022/02/19 08:42:38;;;;;;;6.43;0.80;;;;;;;9.16;45.95;99024.00;4992418;28;20084;-77
2022/02/19 08:45:05;;;;;;;0.50;0.50;;;;;;;9.33;45.50;99021.28;4992338;28;20029;-77
2022/02/19 08:47:32;;;;;;;2.28;1.35;;;;;;;9.14;45.12;99025.75;4992060;28;20406;-76
2022/02/19 08:49:57;;;;;;;0.40;0.40;;;;;;;8.73;46.46;99028.63;4992372;28;20023;-76
2022/02/19 08:52:23;;;;;;;0.50;0.50;;;;;;;9.52;43.46;99014.19;4992272;28;20026;-76
2022/02/19 08:54:48;;;;;;;6.55;0.88;;;;;;;8.73;45.81;99026.06;4992406;28;20514;-76
2022/02/19 08:57:13;;;;;;;0.50;0.50;;;;;;;9.65;44.92;99022.69;4991966;28;20065;-76
2022/02/19 08:59:39;;;;;;;0.82;0.82;;;;;;;10.09;42.62;99008.41;4992326;28;20054;-77
2022/02/19 09:02:04;;;;;;;1.35;1.13;;;;;;;9.45;44.08;99013.41;4992048;28;20018;-76
2022/02/19 09:04:29;;;;;;;0.75;0.75;;;;;;;9.34;43.47;99023.00;4992106;28;20019;-77
2022/02/19 09:06:55;;;;;;;3.47;1.35;;;;;;;9.79;43.66;99026.00;4991827;28;20030;-76
2022/02/19 09:09:20;;;;;;;1.45;1.35;;;;;;;9.05;43.77;99032.75;4992048;28;20030;-77
2022/02/19 09:11:45;;;;;;;0.98;0.95;;;;;;;9.74;42.77;99032.97;4992127;28;20026;-77
2022/02/19 09:14:11;;;;;;;0.88;0.88;;;;;;;8.95;43.96;99050.91;4992125;28;20026;-77
2022/02/19 09:16:37;;;;;;;0.60;0.60;;;;;;;10.44;41.24;99039.03;4991867;28;20030;-77
2022/02/19 09:19:05;;;;;;;0.70;0.70;;;;;;;10.35;40.61;99034.88;4992041;28;20038;-77
2022/02/19 09:21:31;;;;;;;0.40;0.40;;;;;;;9.66;41.78;99040.78;4993318;28;20096;-77
2022/02/19 09:23:57;;;;;;;0.90;0.88;;;;;;;12.00;38.03;99029.59;4995671;28;20483;-77
2022/02/19 09:26:23;;;;;;;2.30;1.02;;;;;;;11.78;38.99;99029.09;4995478;28;20045;-77
2022/02/19 09:28:49;;;;;;;1.95;1.52;;;;;;;11.87;38.61;99035.06;4995479;28;20057;-77
2022/02/19 09:31:15;;;;;;;0.55;0.55;;;;;;;10.36;41.38;99033.97;4995488;28;20035;-77
2022/02/19 09:33:40;;;;;;;0.88;0.60;;;;;;;11.18;40.14;99037.09;4995227;28;20034;-77
2022/02/19 09:36:07;;;;;;;0.82;0.75;;;;;;;11.87;37.78;99038.50;4995047;28;20117;-77
2022/02/19 09:38:33;;;;;;;0.47;0.47;;;;;;;10.29;40.03;99038.38;4995161;28;20038;-77
2022/02/19 09:41:01;;;;;;;0.70;0.70;;;;;;;11.67;37.53;99036.25;4995254;28;20468;-77
2022/02/19 09:43:27;;;;;;;0.77;0.77;;;;;;;12.96;35.55;99039.66;4995238;28;20027;-77
2022/02/19 09:45:52;;;;;;;1.23;0.77;;;;;;;10.61;38.98;99054.38;4994974;28;20041;-77
2022/02/19 09:48:19;;;;;;;0.40;0.40;;;;;;;10.55;38.91;99056.19;4995114;28;20030;-77
2022/02/19 09:50:46;;;;;;;1.75;0.95;;;;;;;10.02;39.79;99055.06;4995040;28;20080;-76
2022/02/19 09:53:12;;;;;;;0.50;0.50;;;;;;;9.77;39.99;99061.41;4995168;28;20050;-77
2022/02/19 09:55:38;;;;;;;0.60;0.60;;;;;;;11.48;37.70;99060.81;4994855;28;20050;-77
2022/02/19 09:58:04;;;;;;;0.57;0.55;;;;;;;12.26;36.45;99054.19;4994893;28;20065;-77
2022/02/19 10:00:39;;;;;;;1.15;1.13;;;;;;;13.05;35.26;99052.47;4994907;28;20545;-77
2022/02/19 10:03:11;;;;;;;0.40;0.40;;;;;;;12.66;34.35;99066.34;4994639;28;20026;-78
2022/02/19 10:05:36;;;;;;;2.63;1.73;;;;;;;13.26;32.98;99065.88;4994689;28;20025;-78
2022/02/19 10:08:07;;;;;;;0.30;0.30;;;;;;;12.80;33.46;99079.88;4993341;28;20038;-78
2022/02/19 10:10:35;;;;;;;0.82;0.82;;;;;;;10.91;35.78;99089.38;4994541;28;20041;-78
2022/02/19 10:13:01;;;;;;;1.02;0.73;;;;;;;13.37;33.97;99085.53;4994732;28;20475;-78
2022/02/19 10:15:46;;;;;;;1.77;1.35;;;;;;;12.02;34.02;99079.75;4994083;28;20041;-78
2022/02/19 10:18:22;;;;;;;0.73;0.63;;;;;;;11.69;34.39;99090.72;4994553;28;20023;-76
2022/02/19 10:23:15;;;;;;;0.95;0.95;;;;;;;11.82;35.32;99092.25;5109881;27;20372;-77
2022/02/19 10:25:40;;;;;;;1.00;0.70;;;;;;;10.07;37.11;99099.03;5110089;28;20056;-77
2022/02/19 10:28:10;;;;;;;1.08;1.02;;;;;;;10.29;37.98;99097.06;5109578;28;20071;-77
2022/02/19 10:30:36;;;;;;;0.60;0.60;;;;;;;11.20;35.87;99099.31;5109574;28;20028;-77
2022/02/19 10:33:07;;;;;;;0.77;0.77;;;;;;;10.76;36.51;99090.44;5117745;28;20037;-77
2022/02/19 10:35:40;;;;;;;1.73;1.25;;;;;;;9.65;38.70;99089.97;5058657;22;20065;-67
2022/02/19 10:38:14;;;;;;;0.40;0.40;;;;;;;11.23;36.97;99086.31;5029083;28;20022;-68
2022/02/19 10:40:43;;;;;;;0.55;0.55;;;;;;;9.64;38.81;99089.09;5020976;28;20393;-68
2022/02/19 10:43:16;;;;;;;1.08;0.55;;;;;;;9.70;39.71;99093.38;5029089;28;20363;-68
2022/02/19 10:46:03;;;;;;;0.40;0.40;;;;;;;10.80;38.45;99082.59;5029122;28;20072;-67
2022/02/19 10:48:32;;;;;;;0.65;0.65;;;;;;;11.19;37.04;99079.44;5028856;28;20167;-68
2022/02/19 10:51:12;;;;;;;0.60;0.60;;;;;;;11.77;36.23;99065.50;5028890;28;20025;-67
2022/02/19 10:53:40;;;;;;;0.40;0.40;;;;;;;12.30;35.20;99079.22;5028667;28;20029;-67
2022/02/19 10:56:12;;;;;;;0.50;0.50;;;;;;;10.63;35.14;99068.16;5028740;28;20126;-71
2022/02/19 10:58:56;;;;;;;0.47;0.47;;;;;;;11.45;34.77;99068.63;5028969;28;20109;-71
2022/02/19 11:01:21;;;;;;;0.90;0.55;;;;;;;13.17;32.20;99068.66;5028699;28;20029;-65
2022/02/19 11:03:47;;;;;;;0.90;0.73;;;;;;;13.30;31.96;99070.13;5019025;28;20447;-65
2022/02/19 11:06:14;;;;;;;0.98;0.98;;;;;;;11.20;34.87;99082.00;5026408;28;20057;-71
2022/02/19 11:08:44;;;;;;;0.40;0.40;;;;;;;10.51;36.31;99090.78;5027838;28;20026;-71
2022/02/19 11:11:11;;;;;;;1.88;0.70;;;;;;;9.05;38.97;99099.94;5020266;28;20017;-71
2022/02/19 11:13:38;;;;;;;0.40;0.40;;;;;;;9.04;39.67;99100.78;5028419;28;20033;-70
2022/02/19 11:16:07;;;;;;;0.70;0.70;;;;;;;10.67;37.58;99090.56;5028259;28;20030;-71
2022/02/19 11:18:34;;;;;;;0.50;0.50;;;;;;;10.88;37.11;99095.47;5028402;28;20483;-71
2022/02/19 11:21:04;;;;;;;0.45;0.45;;;;;;;11.85;35.17;99091.34;5028370;28;20095;-70
2022/02/19 11:23:31;;;;;;;0.40;0.40;;;;;;;10.05;37.48;99096.44;5028353;28;20029;-70
2022/02/19 11:26:01;;;;;;;1.02;0.77;;;;;;;10.15;37.78;99093.75;5028289;28;20441;-70
2022/02/19 11:28:32;;;;;;;2.40;0.60;;;;;;;10.71;36.97;99087.06;5028057;28;20029;-71
2022/02/19 11:31:00;;;;;;;0.47;0.47;;;;;;;11.67;35.17;99077.78;5028237;28;20026;-71
2022/02/19 11:33:28;;;;;;;0.40;0.40;;;;;;;10.04;38.73;99079.19;5014566;28;20034;-71
2022/02/19 11:35:58;;;;;;;0.55;0.55;;;;;;;10.67;37.24;99077.59;5010118;28;20026;-71
2022/02/19 11:38:30;;;;;;;0.65;0.65;;;;;;;11.92;35.24;99066.97;5014055;28;20498;-71
2022/02/19 11:40:58;;;;;;;0.38;0.38;;;;;;;13.51;31.80;99053.94;5006571;28;20391;-69
2022/02/19 11:43:37;;;;;;;0.55;0.55;;;;;;;14.18;31.05;99055.66;5014763;28;20468;-72
2022/02/19 11:46:23;;;;;;;0.32;0.32;;;;;;;10.44;34.89;99076.19;5014797;28;20056;-69
2022/02/19 11:48:50;;;;;;;0.68;0.65;;;;;;;9.92;36.60;99069.00;5000780;28;20110;-71
2022/02/19 11:51:20;;;;;;;1.17;0.57;;;;;;;10.38;37.19;99063.28;5014656;28;20041;-72
2022/02/19 11:53:47;;;;;;;0.82;0.50;;;;;;;11.35;35.28;99059.31;5014746;28;20029;-67
2022/02/19 11:56:35;;;;;;;0.68;0.68;;;;;;;11.45;34.82;99051.34;5014471;28;20033;-68
2022/02/19 11:59:01;;;;;;;2.65;0.95;;;;;;;11.62;34.14;99039.81;5014654;28;20063;-68
2022/02/19 12:01:30;;;;;;;0.40;0.40;;;;;;;11.05;34.83;99046.81;5014324;28;20030;-68
2022/02/19 12:04:10;;;;;;;1.48;0.70;;;;;;;8.89;38.25;99050.91;5003757;28;20018;-67
2022/02/19 12:06:39;;;;;;;2.38;2.20;;;;;;;8.42;40.22;99049.50;4975235;28;20176;-70
2022/02/19 12:09:07;;;;;;;0.50;0.50;;;;;;;8.35;40.23;99042.59;4992396;28;20434;-70
2022/02/19 12:11:55;;;;;;;0.40;0.40;;;;;;;8.21;40.68;99036.63;5006666;28;20273;-70
2022/02/19 12:14:53;;;;;;;0.43;0.43;;;;;;;8.47;40.71;99047.75;5014173;28;20029;-71
2022/02/19 12:17:21;;;;;;;0.50;0.50;;;;;;;9.58;38.05;99037.44;5013872;28;20080;-73
2022/02/19 12:19:56;;;;;;;0.63;0.50;;;;;;;9.36;37.53;99056.59;5014170;28;20029;-68
2022/02/19 12:22:38;;;;;;;0.38;0.38;;;;;;;8.64;39.44;99036.44;5012585;28;20402;-67
2022/02/19 12:25:09;;;;;;;1.10;1.10;;;;;;;8.24;41.02;99039.22;5013907;28;20041;-82
2022/02/19 12:27:36;;;;;;;6.13;0.93;;;;;;;8.06;40.06;99044.44;5013800;28;20025;-75
2022/02/19 12:30:23;;;;;;;0.40;0.40;;;;;;;8.06;40.30;99044.44;5013701;28;20022;-70
2022/02/19 12:32:52;;;;;;;0.40;0.40;;;;;;;8.75;39.15;99043.28;5010119;28;20014;-65
2022/02/19 12:35:17;;;;;;;0.63;0.52;;;;;;;8.74;39.85;99038.09;5005380;28;20091;-66
2022/02/19 12:37:43;;;;;;;1.40;0.60;;;;;;;7.95;39.74;99042.75;5013441;28;20026;-70
2022/02/19 12:40:15;;;;;;;0.95;0.95;;;;;;;8.07;39.96;99036.69;5004918;28;20080;-66
2022/02/19 12:42:46;;;;;;;0.50;0.50;;;;;;;8.58;40.06;99033.91;5013691;28;20436;-68
2022/02/19 12:45:11;;;;;;;4.10;2.35;;;;;;;8.78;39.27;99037.22;5012750;28;20058;-70
2022/02/19 12:47:38;;;;;;;0.57;0.57;;;;;;;9.38;38.98;99029.88;5013320;28;20064;-67
2022/02/19 12:50:05;;;;;;;1.35;1.25;;;;;;;9.20;38.97;99022.25;5013535;28;20033;-69
2022/02/19 12:52:30;;;;;;;0.75;0.75;;;;;;;9.12;39.40;99024.06;5013419;28;20479;-68
2022/02/19 12:54:56;;;;;;;1.77;1.20;;;;;;;9.29;38.13;99019.59;5013472;28;20033;-72
2022/02/19 12:57:23;;;;;;;1.20;1.20;;;;;;;9.47;38.04;99013.38;5013252;28;20105;-72
2022/02/19 12:59:51;;;;;;;0.40;0.40;;;;;;;8.96;38.27;99000.91;5012255;28;20494;-72
2022/02/19 13:02:25;;;;;;;0.50;0.50;;;;;;;9.79;37.88;99005.28;5009584;28;20547;-72
2022/02/19 13:04:59;;;;;;;2.25;0.52;;;;;;;10.18;37.96;98987.56;5005125;28;20017;-72
2022/02/19 13:07:24;;;;;;;0.60;0.60;;;;;;;9.70;37.07;98984.69;5013174;28;20022;-72
2022/02/19 13:09:51;;;;;;;4.10;1.33;;;;;;;9.78;37.34;98988.06;5006243;28;20022;-72
2022/02/19 13:12:27;;;;;;;1.85;1.15;;;;;;;9.79;37.45;98984.59;5011656;28;20037;-72
2022/02/19 13:14:54;;;;;;;0.85;0.85;;;;;;;9.17;38.81;98986.09;5013101;28;20446;-72
2022/02/19 13:17:20;;;;;;;0.40;0.40;;;;;;;9.17;38.52;98974.00;5013005;28;20041;-72
2022/02/19 13:19:46;;;;;;;0.45;0.45;;;;;;;9.85;38.13;98983.66;5012954;28;20022;-73
2022/02/19 13:22:24;;;;;;;0.40;0.40;;;;;;;9.33;38.07;98977.34;5013123;28;20026;-73
2022/02/19 13:24:50;;;;;;;5.53;0.70;;;;;;;9.94;37.91;98968.88;5012800;28;20022;-73
2022/02/19 13:27:16;;;;;;;0.93;0.93;;;;;;;10.43;35.61;98965.66;5012752;28;20475;-73
2022/02/19 13:29:53;;;;;;;0.85;0.85;;;;;;;10.23;36.09;98954.69;5012697;28;20125;-72
2022/02/19 13:32:25;;;;;;;0.43;0.43;;;;;;;9.71;37.25;98952.75;5009238;28;20077;-67
2022/02/19 13:34:52;;;;;;;0.47;0.47;;;;;;;9.99;36.41;98941.19;5004382;28;20029;-68
2022/02/19 13:37:18;;;;;;;1.83;1.73;;;;;;;10.73;35.44;98934.97;5012675;28;20034;-68
2022/02/19 13:39:45;;;;;;;0.52;0.52;;;;;;;10.43;37.60;98931.13;5006416;28;20050;-68
2022/02/19 13:42:11;;;;;;;2.08;1.70;;;;;;;10.16;37.46;98937.56;5010102;28;20386;-68
2022/02/19 13:44:47;;;;;;;0.50;0.50;;;;;;;9.53;36.55;98936.59;5012586;28;20057;-67
2022/02/19 13:47:12;;;;;;;0.50;0.50;;;;;;;9.88;35.87;98945.66;5012538;28;20101;-66
2022/02/19 13:49:41;;;;;;;0.50;0.50;;;;;;;9.95;34.76;98936.94;5012690;28;20454;-68
2022/02/19 13:52:24;;;;;;;3.88;0.50;;;;;;;10.08;35.29;98947.16;5012473;28;20025;-67
2022/02/19 13:54:50;;;;;;;0.77;0.77;;;;;;;9.89;35.33;98933.59;5012767;28;20265;-68
2022/02/19 13:57:30;;;;;;;0.70;0.70;;;;;;;10.48;35.27;98943.13;5012164;28;20034;-68
2022/02/19 14:00:00;;;;;;;;;;;;;;;10.11;34.32;98944.53;5013017;28;20030;-68
2022/02/19 14:02:25;;;;;;;2.17;1.10;;;;;;;10.57;34.20;98941.28;5003847;28;20374;-68
2022/02/19 14:05:03;;;;;;;0.40;0.40;;;;;;;9.62;34.58;98934.75;5004088;28;20040;-68
2022/02/19 14:07:29;;;;;;;0.40;0.40;;;;;;;9.52;33.81;98934.91;5012397;28;20029;-68
2022/02/19 14:10:08;;;;;;;0.40;0.40;;;;;;;10.24;35.18;98952.13;5004793;28;20026;-68
2022/02/19 14:12:39;;;;;;;4.20;0.50;;;;;;;10.31;34.31;98947.72;4973294;28;20161;-68
2022/02/19 14:15:06;;;;;;;0.82;0.80;;;;;;;9.89;34.05;98946.53;4973166;28;20507;-68
2022/02/19 14:17:43;;;;;;;0.50;0.50;;;;;;;9.74;35.72;98950.16;4973273;28;20026;-68
2022/02/19 14:20:11;;;;;;;0.68;0.68;;;;;;;9.87;37.26;98954.31;4973483;28;20082;-72
2022/02/19 14:22:40;;;;;;;0.63;0.63;;;;;;;9.99;36.98;98941.19;4973290;28;20058;-72
2022/02/19 14:25:12;;;;;;;0.73;0.73;;;;;;;9.90;36.07;98949.09;4973253;28;20033;-72
2022/02/19 14:27:58;;;;;;;0.40;0.40;;;;;;;9.86;36.02;98939.63;4972918;28;20038;-71
2022/02/19 14:30:27;;;;;;;0.63;0.63;;;;;;;9.55;35.83;98944.34;4973320;28;20506;-67
2022/02/19 14:32:54;;;;;;;4.28;1.38;;;;;;;9.21;36.51;98949.00;4989643;28;20026;-67
2022/02/19 14:35:21;;;;;;;8.10;0.68;;;;;;;9.47;37.76;98944.41;5003748;28;20037;-68
2022/02/19 14:37:47;;;;;;;0.60;0.60;;;;;;;9.47;37.13;98944.41;5011976;28;20498;-68
2022/02/19 14:40:13;;;;;;;0.82;0.82;;;;;;;9.34;37.16;98945.44;5003006;28;20030;-68
2022/02/19 14:42:38;;;;;;;0.50;0.50;;;;;;;9.63;35.75;98952.03;5011957;28;20022;-68
2022/02/19 14:45:04;;;;;;;0.43;0.43;;;;;;;9.27;36.86;98954.97;5012085;28;20101;-69
2022/02/19 14:47:30;;;;;;;1.05;0.95;;;;;;;9.26;36.92;98948.09;5011803;28;20022;-67
2022/02/19 14:49:57;;;;;;;0.50;0.50;;;;;;;9.68;36.76;98952.81;5011959;28;20076;-67
2022/02/19 14:52:23;;;;;;;0.98;0.95;;;;;;;9.69;36.43;98962.28;5012056;28;20030;-69
2022/02/19 14:54:50;;;;;;;0.63;0.52;;;;;;;9.96;36.44;98956.78;5011805;28;20045;-68
2022/02/19 14:57:16;;;;;;;0.40;0.40;;;;;;;9.75;35.64;98957.03;5011667;28;20032;-68
2022/02/19 14:59:41;;;;;;;0.50;0.50;;;;;;;9.67;35.57;98966.59;5010623;28;20120;-68
2022/02/19 15:02:07;;;;;;;0.60;0.60;;;;;;;9.27;35.62;98956.69;5008199;28;20114;-68
2022/02/19 15:04:32;;;;;;;0.50;0.50;;;;;;;9.16;36.56;98963.69;5003434;28;20056;-67
2022/02/19 15:07:00;;;;;;;0.65;0.65;;;;;;;8.78;35.92;98959.72;5011705;28;20029;-67
2022/02/19 15:09:26;;;;;;;0.40;0.40;;;;;;;9.03;35.86;98944.84;5010534;28;20022;-67
2022/02/19 15:11:51;;;;;;;0.50;0.50;;;;;;;8.99;36.27;98958.66;5010233;28;20022;-74
2022/02/19 15:17:38;;;;;;;0.40;0.40;;;;;;;8.64;36.27;98946.03;5014733;28;20041;-71
2022/02/19 15:23:25;;;;;;;0.40;0.40;;;;;;;8.66;36.36;98949.50;5014909;28;20095;-72
2022/02/19 15:25:51;;;;;;;0.40;0.40;;;;;;;8.66;36.34;98934.00;5014748;28;20426;-67
2022/02/19 15:28:16;;;;;;;0.50;0.50;;;;;;;8.67;36.79;98939.13;5015111;28;20022;-67
2022/02/19 15:30:41;;;;;;;1.48;1.48;;;;;;;8.57;36.71;98934.06;5014893;28;20024;-67
2022/02/19 15:33:06;;;;;;;0.70;0.70;;;;;;;8.55;37.00;98930.63;5010661;28;20475;-67
2022/02/19 15:35:32;;;;;;;0.50;0.50;;;;;;;8.41;36.78;98930.72;5006801;28;20398;-67
2022/02/19 15:37:57;;;;;;;0.50;0.50;;;;;;;8.42;36.75;98917.81;5014487;28;20049;-67
2022/02/19 15:40:23;;;;;;;0.50;0.50;;;;;;;8.37;36.98;98922.16;5005557;28;20096;-68
2022/02/19 15:42:48;;;;;;;0.40;0.40;;;;;;;8.41;37.30;98929.00;5014807;28;20390;-68
2022/02/19 15:45:14;;;;;;;0.50;0.50;;;;;;;8.35;38.08;98922.97;5015074;28;20056;-68
2022/02/19 15:47:39;;;;;;;3.60;0.50;;;;;;;8.36;37.66;98930.75;5014558;28;20088;-68
2022/02/19 15:50:08;;;;;;;0.60;0.60;;;;;;;8.26;37.42;98929.06;5014601;28;20565;-68
2022/02/19 15:52:35;;;;;;;1.42;1.23;;;;;;;8.30;37.93;98914.41;5014651;28;20030;-67
2022/02/19 15:55:00;;;;;;;0.55;0.55;;;;;;;8.24;37.96;98911.00;5014453;28;20109;-67
2022/02/19 15:57:25;;;;;;;0.40;0.40;;;;;;;8.33;38.73;98915.25;5014402;28;20116;-67
2022/02/19 15:59:51;;;;;;;0.43;0.43;;;;;;;8.24;38.28;98920.47;5014451;28;20076;-67
2022/02/19 16:02:16;;;;;;;0.82;0.82;;;;;;;8.12;38.28;98921.41;5010604;28;20053;-67
2022/02/19 16:04:41;;;;;;;1.30;1.30;;;;;;;8.09;38.60;98905.09;5006247;28;20057;-67
2022/02/19 16:07:07;;;;;;;0.60;0.60;;;;;;;8.05;39.52;98904.25;5014216;28;20075;-66
2022/02/19 16:09:33;;;;;;;0.60;0.60;;;;;;;8.07;39.15;98901.66;5009557;28;20113;-67
2022/02/19 16:11:59;;;;;;;0.60;0.60;;;;;;;8.06;38.94;98915.41;5010398;28;20533;-67
2022/02/19 16:14:24;;;;;;;1.25;0.98;;;;;;;8.05;39.47;98924.03;5014264;28;20034;-66
2022/02/19 16:16:50;;;;;;;0.85;0.85;;;;;;;8.05;40.53;98921.44;5014158;28;20116;-66
2022/02/19 16:19:15;;;;;;;0.82;0.82;;;;;;;7.94;40.16;98929.25;5014071;28;20083;-66
2022/02/19 16:21:40;;;;;;;0.50;0.50;;;;;;;7.79;39.85;98937.94;5014263;28;20029;-66
2022/02/19 16:24:06;;;;;;;0.50;0.50;;;;;;;7.65;40.97;98939.69;5014056;28;20028;-67
2022/02/19 16:26:32;;;;;;;1.35;1.27;;;;;;;7.52;40.78;98948.34;5014097;28;20022;-67
2022/02/19 16:28:57;;;;;;;1.55;1.45;;;;;;;7.44;41.02;98946.63;5012724;28;20025;-67
2022/02/19 16:31:23;;;;;;;0.95;0.95;;;;;;;7.32;41.44;98946.66;5013698;28;20026;-66
2022/02/19 16:33:49;;;;;;;0.73;0.73;;;;;;;7.30;41.45;98943.25;5019842;23;20034;-75
2022/02/19 16:36:14;;;;;;;0.70;0.70;;;;;;;7.27;42.69;98943.25;5029925;28;20049;-76
2022/02/19 16:38:41;;;;;;;1.85;1.13;;;;;;;7.21;41.93;98940.69;5032818;28;20071;-76
2022/02/19 16:41:06;;;;;;;0.55;0.55;;;;;;;7.18;42.44;98943.25;5025109;28;20022;-76
2022/02/19 16:43:32;;;;;;;0.52;0.50;;;;;;;7.17;41.78;98938.97;5033486;28;20539;-78
2022/02/19 16:46:02;;;;;;;0.50;0.50;;;;;;;7.17;42.02;98951.84;5032741;28;20078;-75
2022/02/19 16:48:28;;;;;;;0.60;0.60;;;;;;;7.07;42.75;98952.72;5033133;28;20025;-77
2022/02/19 16:50:54;;;;;;;1.35;0.85;;;;;;;6.89;44.32;98957.03;5032064;28;20398;-77
2022/02/19 16:53:19;;;;;;;1.27;0.80;;;;;;;6.82;43.84;98955.31;5033131;28;20029;-69
2022/02/19 16:55:44;;;;;;;2.22;0.77;;;;;;;6.65;44.44;98962.16;5032904;28;20033;-77
2022/02/19 16:58:11;;;;;;;1.13;1.05;;;;;;;6.60;44.69;98953.59;5033269;28;20075;-77
2022/02/19 17:00:38;;;;;;;1.05;0.95;;;;;;;6.48;45.18;98964.75;5033178;28;20026;-77
2022/02/19 17:03:04;;;;;;;1.45;1.40;;;;;;;6.46;45.09;98957.84;5029077;28;20021;-77
2022/02/19 17:05:29;;;;;;;0.65;0.65;;;;;;;6.46;45.32;98955.28;5024668;28;20453;-77
2022/02/19 17:07:54;;;;;;;3.55;1.67;;;;;;;6.46;45.27;98940.69;5032945;28;20045;-77
2022/02/19 17:10:20;;;;;;;0.93;0.82;;;;;;;6.40;45.57;98936.41;5023422;28;20025;-77
2022/02/19 17:12:45;;;;;;;1.17;1.17;;;;;;;6.32;48.56;98932.97;5033067;28;20051;-80
2022/02/19 17:15:15;;;;;;;1.35;1.30;;;;;;;6.09;47.83;98929.47;5032872;28;20505;-79
2022/02/19 17:17:42;;;;;;;0.73;0.73;;;;;;;5.87;47.58;98929.41;5032780;28;20402;-80
2022/02/19 17:20:09;;;;;;;0.90;0.90;;;;;;;5.81;49.19;98926.81;5024785;28;20037;-80
2022/02/19 17:22:35;;;;;;;0.60;0.60;;;;;;;5.71;49.05;98930.22;5012900;28;20014;-80
2022/02/19 17:25:00;;;;;;;0.50;0.50;;;;;;;5.67;50.63;98921.63;5013002;28;20033;-80
2022/02/19 17:27:25;;;;;;;0.75;0.75;;;;;;;5.57;50.74;98919.00;5012425;28;20116;-79
2022/02/19 17:29:51;;;;;;;1.17;1.17;;;;;;;5.49;49.96;98920.69;5011534;28;20512;-80
2022/02/19 17:32:16;;;;;;;1.58;1.40;;;;;;;5.43;49.66;98918.94;5024579;28;20024;-80
2022/02/19 17:34:45;;;;;;;1.55;1.45;;;;;;;5.43;51.05;98920.66;5018807;28;20036;-80
2022/02/19 17:37:10;;;;;;;2.42;2.22;;;;;;;5.27;52.63;98919.69;5021063;28;20018;-80
2022/02/19 17:39:35;;;;;;;3.03;1.30;;;;;;;5.13;51.42;98917.06;5032619;28;20048;-81
2022/02/19 17:42:03;;;;;;;2.17;1.55;;;;;;;5.07;51.75;98922.16;5031495;28;20492;-80
2022/02/19 17:44:28;;;;;;;2.40;1.63;;;;;;;5.04;51.40;98932.41;5032242;28;20560;-81
2022/02/19 17:46:54;;;;;;;2.10;1.83;;;;;;;4.89;52.17;98933.19;5032237;28;20061;-81
2022/02/19 17:49:19;;;;;;;0.98;0.95;;;;;;;4.71;52.69;98936.47;5016941;28;20105;-81
2022/02/19 17:51:45;;;;;;;1.73;1.63;;;;;;;4.76;52.44;98941.63;5032537;28;20100;-80
2022/02/19 17:54:11;;;;;;;2.17;2.05;;;;;;;4.68;52.48;98933.84;5020470;28;20459;-81
2022/02/19 17:56:36;;;;;;;0.85;0.85;;;;;;;4.58;53.07;98937.19;5024700;28;20060;-81
2022/02/19 17:59:01;;;;;;;1.73;1.65;;;;;;;4.49;54.02;98927.72;5025150;28;20064;-81
2022/02/19 18:01:29;;;;;;;1.55;1.45;;;;;;;4.35;54.13;98940.44;5020385;28;20030;-81
2022/02/19 18:03:56;;;;;;;1.88;1.77;;;;;;;4.28;54.63;98940.34;5027158;28;20033;-81
2022/02/19 18:06:22;;;;;;;6.00;2.60;;;;;;;4.25;55.10;98948.84;5013647;28;20430;-81
2022/02/19 18:08:48;;;;;;;2.47;2.38;;;;;;;4.27;55.41;98936.06;5011579;28;20049;-81
2022/02/19 18:11:13;;;;;;;1.17;1.02;;;;;;;4.27;55.05;98934.38;5012319;28;20033;-80
2022/02/19 18:13:39;;;;;;;0.70;0.70;;;;;;;4.14;54.44;98935.09;5011932;28;20026;-80
2022/02/19 18:16:04;;;;;;;1.42;1.33;;;;;;;4.08;54.78;98940.16;5018914;28;20494;-80
2022/02/19 18:18:30;;;;;;;1.42;1.25;;;;;;;4.05;55.67;98935.84;5011967;28;20029;-80
2022/02/19 18:20:55;;;;;;;1.75;1.65;;;;;;;3.86;56.26;98939.91;5026972;28;20048;-80
2022/02/19 18:23:20;;;;;;;2.50;2.30;;;;;;;3.94;56.72;98937.44;5031887;28;20494;-80
2022/02/19 18:25:46;;;;;;;2.17;1.27;;;;;;;3.96;57.13;98940.00;5031928;28;20037;-81
2022/02/19 18:28:11;;;;;;;1.42;1.35;;;;;;;3.97;56.44;98944.31;5031967;28;20504;-81
2022/02/19 18:30:36;;;;;;;1.50;1.48;;;;;;;3.99;57.41;98945.19;5031962;28;20025;-81
2022/02/19 18:33:02;;;;;;;1.05;1.00;;;;;;;3.93;56.65;98940.00;5019033;28;20104;-81
2022/02/19 18:35:29;;;;;;;1.05;1.05;;;;;;;3.84;56.10;98933.91;5019902;28;20087;-81
2022/02/19 18:37:54;;;;;;;0.68;0.68;;;;;;;3.95;55.27;98941.72;5010795;28;20037;-81
2022/02/19 18:40:20;;;;;;;0.70;0.70;;;;;;;3.98;55.52;98933.22;5012182;28;20026;-80
2022/02/19 18:42:45;;;;;;;1.20;1.20;;;;;;;4.00;55.67;98926.38;5012020;28;20025;-80
2022/02/19 18:45:11;;;;;;;4.40;1.30;;;;;;;3.88;55.44;98931.41;5014707;28;20069;-80
2022/02/19 18:47:37;;;;;;;0.60;0.60;;;;;;;3.80;55.73;98929.59;5014682;28;20379;-80
2022/02/19 18:50:04;;;;;;;4.45;2.53;;;;;;;3.82;56.46;98925.34;5031711;28;20029;-81